Time;durP1;ratioP1;P1;durP2;ratioP2;P2;SDS_P1;SDS_P2;PMS_P1;PMS_P2;Temp;Humidity;BMP_temperature;BMP_pressure;BME280_temperature;BME280_humidity;BME280_pressure;Samples;Min_cycle;Max_cycle;Signal;HPM_P1;HPM_P2
2021/03/18 00:00:54;;;;;;;5.47;2.42;;;;;;;21.72;45.51;101659.16;5009857;28;20497;-63
2021/03/18 00:03:27;;;;;;;2.22;1.73;;;;;;;21.72;45.54;101652.91;5008359;28;20033;-62
2021/03/18 00:05:54;;;;;;;2.38;2.03;;;;;;;21.70;45.57;101642.22;5010267;28;20176;-63
2021/03/18 00:08:20;;;;;;;2.85;1.85;;;;;;;21.72;45.50;101647.53;5008977;28;20429;-63
2021/03/18 00:10:46;;;;;;;2.25;2.05;;;;;;;21.69;45.61;101636.91;5014783;28;20030;-63
2021/03/18 00:13:11;;;;;;;5.90;2.15;;;;;;;21.69;45.50;101636.91;5006891;28;20026;-63
2021/03/18 00:15:37;;;;;;;1.55;1.45;;;;;;;21.70;45.49;101639.53;5007024;28;20048;-63
2021/03/18 00:18:05;;;;;;;2.85;2.00;;;;;;;21.71;45.53;101637.75;5008290;28;20034;-63
2021/03/18 00:20:31;;;;;;;1.65;1.55;;;;;;;21.69;45.76;101635.13;5009180;28;20395;-63
2021/03/18 00:22:56;;;;;;;2.95;1.90;;;;;;;21.70;45.53;101633.31;5006213;28;20049;-63
2021/03/18 00:25:21;;;;;;;2.53;1.73;;;;;;;21.67;45.47;101619.06;5009623;28;20057;-63
2021/03/18 00:27:47;;;;;;;1.80;1.60;;;;;;;21.67;45.52;101621.75;5006191;28;20120;-62
2021/03/18 00:30:15;;;;;;;3.45;2.15;;;;;;;21.68;45.59;101619.97;5007092;28;20145;-63
2021/03/18 00:32:41;;;;;;;2.65;1.83;;;;;;;21.69;45.56;101619.00;5001319;28;20022;-63
2021/03/18 00:35:08;;;;;;;2.47;2.28;;;;;;;21.67;45.66;101619.06;5007545;28;20025;-63
2021/03/18 00:37:34;;;;;;;3.25;2.65;;;;;;;21.67;45.55;101613.69;5004668;28;20049;-63
2021/03/18 00:40:00;;;;;;;3.58;2.08;;;;;;;21.68;45.59;101611.91;5011224;28;20083;-63
2021/03/18 00:42:25;;;;;;;1.98;1.77;;;;;;;21.69;45.50;101610.97;5003788;28;20018;-63
2021/03/18 00:44:50;;;;;;;2.05;1.50;;;;;;;21.69;45.56;101610.97;5006563;28;20469;-63
2021/03/18 00:47:16;;;;;;;4.00;2.33;;;;;;;21.69;45.63;101602.03;5008867;28;20029;-63
2021/03/18 00:49:41;;;;;;;2.20;1.70;;;;;;;21.68;45.50;101601.16;5008529;28;20030;-63
2021/03/18 00:52:07;;;;;;;2.10;1.88;;;;;;;21.66;45.53;101609.28;5007421;28;20121;-63
2021/03/18 00:54:32;;;;;;;3.83;1.90;;;;;;;21.68;45.54;101609.22;5005219;28;20036;-63
2021/03/18 00:56:58;;;;;;;3.90;2.33;;;;;;;21.68;45.49;101603.84;5003502;28;20098;-63
2021/03/18 00:59:23;;;;;;;2.45;1.80;;;;;;;21.69;45.59;101610.06;5011206;28;20598;-63
2021/03/18 01:01:49;;;;;;;2.58;1.60;;;;;;;21.70;45.50;101603.78;5010900;28;20041;-63
2021/03/18 01:04:14;;;;;;;2.55;1.77;;;;;;;21.69;45.53;101608.28;5005412;28;20060;-63
2021/03/18 01:06:40;;;;;;;3.33;1.98;;;;;;;21.71;45.52;101608.22;5008748;28;20026;-63
2021/03/18 01:09:06;;;;;;;1.95;1.77;;;;;;;21.70;45.48;101606.47;5007263;28;20030;-63
2021/03/18 01:11:34;;;;;;;1.63;1.52;;;;;;;21.70;45.51;101607.31;5006159;28;20037;-63
2021/03/18 01:14:12;;;;;;;2.88;2.30;;;;;;;21.71;45.57;101602.84;5007518;28;20022;-62
2021/03/18 01:16:48;;;;;;;1.92;1.60;;;;;;;21.71;45.50;101602.84;5005873;28;20047;-63
2021/03/18 01:19:15;;;;;;;2.42;1.80;;;;;;;21.70;45.46;101601.09;5029977;28;20116;-63
2021/03/18 01:21:46;;;;;;;3.08;1.83;;;;;;;21.72;45.47;101601.91;5007067;28;20032;-63
2021/03/18 01:24:11;;;;;;;;;;;;;;;21.72;45.51;101600.09;5010494;28;20064;-63
2021/03/18 01:26:37;;;;;;;2.75;2.15;;;;;;;21.73;45.39;101603.63;5008372;28;19957;-63
2021/03/18 01:29:03;;;;;;;2.25;2.05;;;;;;;21.73;45.47;101598.28;5012268;28;20951;-63
2021/03/18 01:31:29;;;;;;;3.42;2.00;;;;;;;21.73;45.28;101601.84;5014225;28;20061;-63
2021/03/18 01:33:55;;;;;;;3.08;1.90;;;;;;;21.75;45.31;101599.13;5011264;28;20391;-63
2021/03/18 01:36:22;;;;;;;1.88;1.42;;;;;;;21.74;45.43;101598.25;5008774;28;20498;-63
2021/03/18 01:38:48;;;;;;;1.48;1.38;;;;;;;21.75;45.40;101593.75;5011841;28;20112;-63
2021/03/18 01:41:14;;;;;;;5.47;1.90;;;;;;;21.73;45.25;101583.03;5010489;28;20148;-63
2021/03/18 01:43:40;;;;;;;2.22;1.70;;;;;;;21.76;45.40;101590.13;5014357;28;20064;-62
2021/03/18 01:46:05;;;;;;;1.67;1.58;;;;;;;21.76;45.36;101585.63;5010018;28;20061;-63
2021/03/18 01:48:31;;;;;;;2.05;1.63;;;;;;;21.76;45.37;101590.13;5014594;28;20029;-63
2021/03/18 01:50:57;;;;;;;2.08;1.75;;;;;;;21.76;45.29;101579.38;5008576;28;20027;-63
2021/03/18 01:53:23;;;;;;;2.65;1.67;;;;;;;21.76;45.36;101579.38;5007981;28;20109;-63
2021/03/18 01:55:50;;;;;;;1.95;1.60;;;;;;;21.77;45.52;101586.50;5011848;28;20060;-63
2021/03/18 01:58:16;;;;;;;2.83;1.65;;;;;;;21.79;45.40;101584.63;5012161;28;20018;-63
2021/03/18 02:00:44;;;;;;;1.90;1.77;;;;;;;21.81;45.24;101582.78;5010045;28;20033;-63
2021/03/18 02:03:09;;;;;;;3.08;1.60;;;;;;;21.80;45.28;101591.75;5012670;28;20038;-62
2021/03/18 02:05:35;;;;;;;2.53;2.33;;;;;;;21.80;45.39;101586.38;5008197;28;20491;-63
2021/03/18 02:08:00;;;;;;;1.60;1.48;;;;;;;21.80;45.27;101586.38;5014779;28;20637;-63
2021/03/18 02:10:32;;;;;;;2.08;1.80;;;;;;;21.80;45.28;101578.31;5014866;28;20095;-63
2021/03/18 02:12:58;;;;;;;2.13;1.95;;;;;;;21.81;45.09;101574.72;5012356;28;20030;-63
2021/03/18 02:15:26;;;;;;;2.38;1.73;;;;;;;21.79;45.32;101580.16;5009360;28;20499;-63
2021/03/18 02:18:39;;;;;;;1.77;1.58;;;;;;;21.81;45.20;101577.41;5011993;28;20030;-63
2021/03/18 02:21:41;;;;;;;1.92;1.70;;;;;;;21.82;45.37;101583.63;5002103;28;20030;-63
2021/03/18 02:24:25;;;;;;;2.95;1.83;;;;;;;21.79;45.27;101585.53;5012344;28;20128;-63
2021/03/18 02:27:14;;;;;;;1.73;1.50;;;;;;;21.79;45.28;101580.16;5028944;28;20049;-63
2021/03/18 02:29:54;;;;;;;1.98;1.75;;;;;;;21.79;45.35;101580.16;5008985;28;20181;-63
2021/03/18 02:32:50;;;;;;;1.95;1.45;;;;;;;21.81;45.30;101577.41;5024722;28;20022;-63
2021/03/18 02:35:35;;;;;;;2.10;1.90;;;;;;;21.81;45.30;101577.41;5011100;28;20032;-63
2021/03/18 02:38:10;;;;;;;2.13;1.90;;;;;;;21.81;45.26;101581.88;5011317;28;20160;-63
2021/03/18 02:40:42;;;;;;;2.20;2.00;;;;;;;21.79;45.22;101580.16;5005629;28;20010;-63
2021/03/18 02:43:11;;;;;;;1.80;1.70;;;;;;;21.80;45.25;101570.25;5008316;28;20024;-63
2021/03/18 02:45:40;;;;;;;1.77;1.67;;;;;;;21.80;45.30;101564.91;5010647;28;20032;-63
2021/03/18 02:48:09;;;;;;;1.90;1.55;;;;;;;21.79;45.14;101571.22;5008671;28;20404;-63
2021/03/18 02:50:35;;;;;;;1.50;1.40;;;;;;;21.80;45.18;101575.63;5011384;28;20048;-63
2021/03/18 02:53:02;;;;;;;1.70;1.60;;;;;;;21.80;45.38;101564.91;5011688;28;20543;-63
2021/03/18 02:55:29;;;;;;;1.73;1.63;;;;;;;21.80;45.27;101567.56;5005985;28;20022;-63
2021/03/18 02:57:55;;;;;;;1.92;1.70;;;;;;;21.79;45.26;101569.41;5009223;28;20494;-63
2021/03/18 03:00:22;;;;;;;1.83;1.55;;;;;;;21.79;45.31;101573.91;5011941;28;20030;-63
2021/03/18 03:02:47;;;;;;;2.75;2.20;;;;;;;21.79;45.26;101568.53;5008273;28;20504;-62
2021/03/18 03:05:14;;;;;;;1.95;1.55;;;;;;;21.79;45.24;101573.91;5007716;28;20036;-62
2021/03/18 03:07:43;;;;;;;1.45;1.33;;;;;;;21.77;45.26;101570.38;5009508;28;20029;-62
2021/03/18 03:10:10;;;;;;;1.95;1.75;;;;;;;21.79;45.14;101558.66;5008735;28;20033;-62
2021/03/18 03:12:35;;;;;;;1.35;1.25;;;;;;;21.77;45.24;101565.03;5009524;28;20034;-63
2021/03/18 03:15:04;;;;;;;1.55;1.45;;;;;;;21.76;45.25;101563.28;5008396;28;20426;-63
2021/03/18 03:17:30;;;;;;;2.17;1.77;;;;;;;21.78;45.04;101564.09;5003041;28;20033;-63
2021/03/18 03:19:56;;;;;;;2.20;1.50;;;;;;;21.76;45.26;101563.28;5007985;28;20517;-63
2021/03/18 03:22:22;;;;;;;1.90;1.70;;;;;;;21.76;45.23;101560.59;5007556;28;20029;-63
2021/03/18 03:24:48;;;;;;;4.43;2.60;;;;;;;21.76;45.36;101571.34;5010610;28;20023;-63
2021/03/18 03:27:14;;;;;;;1.83;1.20;;;;;;;21.75;45.20;101562.44;5012253;28;20087;-63
2021/03/18 03:29:43;;;;;;;1.77;1.40;;;;;;;21.75;45.21;101561.53;5009121;28;20049;-64
2021/03/18 03:32:10;;;;;;;1.80;1.65;;;;;;;21.75;45.19;101566.91;5005853;28;20113;-63
2021/03/18 03:34:36;;;;;;;2.13;1.92;;;;;;;21.75;45.18;101578.53;5007494;28;20443;-63
2021/03/18 03:37:03;;;;;;;1.92;1.73;;;;;;;21.73;45.31;101571.44;5002235;28;21147;-63
2021/03/18 03:39:28;;;;;;;2.03;1.67;;;;;;;21.72;45.21;101575.94;5010607;28;20025;-63
2021/03/18 03:41:53;;;;;;;1.65;1.55;;;;;;;21.72;45.31;101567.00;5010326;28;20035;-63
2021/03/18 03:44:19;;;;;;;2.28;2.08;;;;;;;21.71;45.28;101571.47;5002247;28;20044;-62
2021/03/18 03:46:45;;;;;;;1.65;1.55;;;;;;;21.73;45.22;101575.00;5010964;28;20027;-63
2021/03/18 03:49:10;;;;;;;2.03;1.73;;;;;;;21.72;45.22;101567.88;5013552;28;20048;-63
2021/03/18 03:51:46;;;;;;;1.63;1.52;;;;;;;21.71;45.20;101563.44;5003653;28;20046;-63
2021/03/18 03:54:14;;;;;;;2.17;1.95;;;;;;;21.69;45.30;101568.00;5009601;28;20108;-63
2021/03/18 03:56:47;;;;;;;1.70;1.60;;;;;;;21.70;45.18;101559.00;5010864;28;20630;-63
2021/03/18 03:59:22;;;;;;;1.65;1.55;;;;;;;21.70;45.22;101561.69;5011311;28;20029;-63
2021/03/18 04:01:51;;;;;;;2.42;1.70;;;;;;;21.69;45.25;101565.31;5006474;28;20443;-62
2021/03/18 04:04:44;;;;;;;1.40;1.30;;;;;;;21.70;45.24;101560.84;5007387;28;20057;-63
2021/03/18 04:07:19;;;;;;;1.80;1.70;;;;;;;21.69;45.26;101569.81;5017079;28;20050;-63
2021/03/18 04:09:45;;;;;;;2.58;1.70;;;;;;;21.70;45.27;101560.84;5007535;28;20034;-63
2021/03/18 04:12:13;;;;;;;1.92;1.50;;;;;;;21.70;45.24;101555.47;5006159;28;20105;-63
2021/03/18 04:14:42;;;;;;;1.83;1.60;;;;;;;21.67;45.28;101556.44;5019802;28;20021;-63
2021/03/18 04:17:10;;;;;;;1.80;1.70;;;;;;;21.67;45.27;101559.13;5011090;28;20030;-63
2021/03/18 04:19:36;;;;;;;3.10;1.70;;;;;;;21.67;45.25;101553.75;5005651;28;20056;-62
2021/03/18 04:22:02;;;;;;;1.65;1.55;;;;;;;21.68;45.24;101550.16;5021984;28;20073;-63
2021/03/18 04:24:28;;;;;;;1.85;1.50;;;;;;;21.67;45.28;101548.41;5022579;28;20032;-63
2021/03/18 04:26:54;;;;;;;2.85;1.85;;;;;;;21.66;45.31;101554.72;5003964;28;20030;-63
2021/03/18 04:29:20;;;;;;;2.00;1.80;;;;;;;21.66;45.26;101557.41;5006431;28;20463;-63
2021/03/18 04:31:45;;;;;;;2.33;1.88;;;;;;;21.65;45.30;101545.78;5008962;28;20030;-63
2021/03/18 04:34:13;;;;;;;1.83;1.52;;;;;;;21.66;45.24;101558.28;5005722;28;20140;-62
2021/03/18 04:36:38;;;;;;;2.10;1.80;;;;;;;21.66;45.34;101552.03;5006258;28;20059;-62
2021/03/18 04:39:05;;;;;;;2.00;1.80;;;;;;;21.66;45.16;101560.06;5004685;28;20045;-63
2021/03/18 04:41:31;;;;;;;1.40;1.30;;;;;;;21.65;45.27;101556.50;5007916;28;20057;-63
2021/03/18 04:43:56;;;;;;;1.77;1.63;;;;;;;21.65;45.26;101556.50;5009244;28;20451;-63
2021/03/18 04:46:26;;;;;;;2.80;1.92;;;;;;;21.66;45.24;101549.34;5007180;28;20475;-63
2021/03/18 04:48:59;;;;;;;1.42;1.33;;;;;;;21.67;45.25;101551.09;5019624;28;20034;-62
2021/03/18 04:51:25;;;;;;;2.03;1.75;;;;;;;21.67;45.27;101549.28;5007024;28;20633;-63
2021/03/18 04:53:50;;;;;;;3.38;2.10;;;;;;;21.69;45.17;101545.66;5007870;28;20033;-62
2021/03/18 04:56:18;;;;;;;1.55;1.45;;;;;;;21.69;45.20;101545.66;5009702;28;20049;-63
2021/03/18 04:58:43;;;;;;;3.25;1.55;;;;;;;21.67;45.18;101554.66;5004593;28;20022;-63
2021/03/18 05:01:09;;;;;;;1.98;1.88;;;;;;;21.67;45.18;101543.91;5004175;28;20034;-63
2021/03/18 05:03:35;;;;;;;1.70;1.60;;;;;;;21.70;45.24;101536.69;5006563;28;20495;-63
2021/03/18 05:06:04;;;;;;;3.85;1.80;;;;;;;21.70;45.24;101536.69;5010748;23;20441;-62
2021/03/18 05:08:29;;;;;;;1.80;1.65;;;;;;;21.69;45.36;101538.47;4985420;28;20030;-63
2021/03/18 05:10:55;;;;;;;1.85;1.75;;;;;;;21.70;45.21;101537.53;4984750;28;20033;-63
2021/03/18 05:13:21;;;;;;;1.40;1.30;;;;;;;21.70;45.12;101531.31;4993702;28;20032;-63
2021/03/18 05:15:46;;;;;;;5.53;3.40;;;;;;;21.57;42.23;101537.19;4989525;28;20034;-62
2021/03/18 05:18:13;;;;;;;6.65;5.78;;;;;;;21.20;39.71;101536.88;4986452;28;20038;-62
2021/03/18 05:20:40;;;;;;;7.45;6.75;;;;;;;20.87;37.12;101540.81;4996745;28;20100;-62
2021/03/18 05:23:07;;;;;;;7.80;7.13;;;;;;;20.57;36.16;101535.69;4992818;28;20042;-63
2021/03/18 05:25:33;;;;;;;8.95;7.78;;;;;;;20.40;35.00;101530.09;4988903;28;20089;-62
2021/03/18 05:27:58;;;;;;;8.68;7.82;;;;;;;20.26;33.97;101528.78;4994403;28;20038;-62
2021/03/18 05:30:27;;;;;;;8.55;7.75;;;;;;;20.30;34.00;101533.09;4989888;28;20030;-62
2021/03/18 05:32:52;;;;;;;8.85;7.95;;;;;;;20.19;33.26;101524.59;4990765;28;20036;-62
2021/03/18 05:35:17;;;;;;;7.82;7.15;;;;;;;19.98;32.51;101524.41;4991326;28;20025;-62
2021/03/18 05:37:42;;;;;;;9.38;8.32;;;;;;;19.93;32.35;101529.91;5006424;28;20132;-62
2021/03/18 05:40:11;;;;;;;9.13;8.20;;;;;;;19.82;31.64;101532.97;4994457;28;20372;-62
2021/03/18 05:42:37;;;;;;;9.70;8.80;;;;;;;19.78;31.35;101539.38;4982838;28;20027;-62
2021/03/18 05:45:04;;;;;;;10.25;9.20;;;;;;;19.67;31.38;101531.69;4992361;28;20487;-62
2021/03/18 05:47:31;;;;;;;9.52;8.63;;;;;;;19.57;31.27;101533.78;5000919;28;20030;-62
2021/03/18 05:49:57;;;;;;;10.00;9.00;;;;;;;19.57;31.46;101533.78;4994744;28;20069;-63
2021/03/18 05:52:23;;;;;;;10.30;9.30;;;;;;;19.47;30.64;101527.00;4989125;28;20106;-62
2021/03/18 05:54:49;;;;;;;9.07;8.18;;;;;;;19.41;30.65;101528.06;4984227;28;20030;-62
2021/03/18 05:57:16;;;;;;;10.65;9.60;;;;;;;19.33;30.57;101530.13;4990172;28;20144;-62
2021/03/18 05:59:45;;;;;;;10.25;9.15;;;;;;;19.24;30.73;101528.63;5008619;28;20043;-62
2021/03/18 06:02:12;;;;;;;10.57;9.35;;;;;;;18.98;30.81;101527.63;5002035;28;20472;-62
2021/03/18 06:04:37;;;;;;;10.18;9.18;;;;;;;19.08;30.48;101530.94;4985850;28;20073;-62
2021/03/18 06:07:03;;;;;;;9.07;8.32;;;;;;;19.13;31.08;101533.44;4987386;28;20109;-63
2021/03/18 06:09:28;;;;;;;5.72;5.18;;;;;;;19.34;33.78;101527.41;4988951;28;20395;-63
2021/03/18 06:11:54;;;;;;;8.55;5.90;;;;;;;19.50;33.81;101532.25;4988160;28;20038;-64
2021/03/18 06:14:19;;;;;;;5.88;5.07;;;;;;;19.61;34.00;101535.44;4990111;28;20085;-63
2021/03/18 06:16:46;;;;;;;5.30;4.53;;;;;;;19.69;34.21;101534.31;4992153;28;20030;-64
2021/03/18 06:19:12;;;;;;;3.83;3.53;;;;;;;19.76;34.63;101535.84;4988914;28;21351;-63
2021/03/18 06:21:52;;;;;;;4.30;3.90;;;;;;;19.83;34.77;101534.72;4989484;28;20029;-64
2021/03/18 06:24:19;;;;;;;3.60;3.30;;;;;;;19.90;35.34;101529.16;4991714;28;20422;-64
2021/03/18 06:26:45;;;;;;;4.88;3.60;;;;;;;19.95;35.37;101532.53;5002952;28;20117;-64
2021/03/18 06:29:28;;;;;;;4.88;3.45;;;;;;;20.02;35.68;101526.09;4992523;28;20113;-64
2021/03/18 06:31:54;;;;;;;4.07;3.45;;;;;;;20.07;35.92;101531.28;4992494;28;20121;-64
2021/03/18 06:34:42;;;;;;;5.75;3.55;;;;;;;20.09;36.14;101532.97;4998239;28;20120;-64
2021/03/18 06:37:30;;;;;;;3.40;3.10;;;;;;;20.17;36.37;101532.69;4989625;28;20094;-64
2021/03/18 06:40:17;;;;;;;3.83;3.50;;;;;;;20.19;36.37;101536.19;4981481;28;20026;-64
2021/03/18 06:42:52;;;;;;;3.75;3.45;;;;;;;20.22;36.85;101530.72;4989845;28;20109;-64
2021/03/18 06:45:18;;;;;;;4.05;3.65;;;;;;;20.28;36.86;101534.09;4987840;28;20029;-64
2021/03/18 06:47:46;;;;;;;3.72;3.05;;;;;;;20.29;37.18;101536.72;4988286;28;20400;-64
2021/03/18 06:50:16;;;;;;;3.38;3.08;;;;;;;20.32;37.27;101533.94;4986214;28;20388;-64
2021/03/18 06:52:43;;;;;;;3.33;3.03;;;;;;;20.34;37.43;101529.38;4984341;28;20116;-64
2021/03/18 06:55:10;;;;;;;4.53;3.05;;;;;;;20.35;37.55;101525.81;4985787;28;20031;-64
2021/03/18 06:57:37;;;;;;;3.88;3.00;;;;;;;20.40;37.76;101528.28;4986766;28;20034;-64
2021/03/18 07:00:08;;;;;;;4.18;3.00;;;;;;;20.43;37.87;101532.66;4992709;28;20022;-65
2021/03/18 07:02:39;;;;;;;3.50;3.20;;;;;;;20.44;37.85;101521.03;4990994;28;20036;-64
2021/03/18 07:05:15;;;;;;;3.60;3.30;;;;;;;20.49;37.93;101521.72;4987882;28;20030;-64
2021/03/18 07:07:40;;;;;;;3.65;3.35;;;;;;;20.51;38.03;101520.72;4985996;28;20114;-64
2021/03/18 07:10:06;;;;;;;3.58;3.28;;;;;;;20.53;38.15;101518.00;4989698;28;20134;-63
2021/03/18 07:12:32;;;;;;;3.53;3.22;;;;;;;20.55;38.31;101526.84;4982746;28;20033;-65
2021/03/18 07:15:00;;;;;;;3.22;3.03;;;;;;;20.60;38.32;101522.19;4995356;28;20581;-64
2021/03/18 07:17:32;;;;;;;4.68;3.92;;;;;;;20.62;38.44;101520.34;4995900;28;20033;-64
2021/03/18 07:20:21;;;;;;;4.25;3.35;;;;;;;20.66;38.55;101518.41;4989346;28;20030;-63
2021/03/18 07:22:52;;;;;;;4.13;3.72;;;;;;;20.71;38.68;101520.91;4989325;28;20019;-63
2021/03/18 07:25:20;;;;;;;3.67;3.38;;;;;;;20.73;38.71;101519.91;5012442;28;20080;-64
2021/03/18 07:27:53;;;;;;;4.10;3.25;;;;;;;20.79;38.69;101513.44;4989258;28;20064;-63
2021/03/18 07:30:38;;;;;;;3.95;3.65;;;;;;;20.82;38.70;101512.44;4993035;28;20029;-63
2021/03/18 07:33:05;;;;;;;4.03;3.72;;;;;;;20.86;38.69;101519.44;4986284;28;20061;-65
2021/03/18 07:35:30;;;;;;;3.90;3.65;;;;;;;21.07;39.23;101522.25;4984362;28;20101;-64
2021/03/18 07:37:57;;;;;;;3.47;2.97;;;;;;;21.23;39.02;101511.75;4986604;28;20027;-64
2021/03/18 07:40:24;;;;;;;3.67;3.45;;;;;;;21.40;38.93;101514.63;4990844;28;20480;-64
2021/03/18 07:42:50;;;;;;;4.10;3.75;;;;;;;21.56;39.09;101518.44;4993058;28;20125;-63
2021/03/18 07:45:20;;;;;;;3.53;3.22;;;;;;;21.63;38.93;101510.09;4989144;28;20084;-62
2021/03/18 07:47:46;;;;;;;3.35;3.03;;;;;;;21.74;38.92;101506.13;4990890;28;20027;-64
2021/03/18 07:50:13;;;;;;;3.70;3.40;;;;;;;21.83;39.16;101512.88;4974718;28;20032;-63
2021/03/18 07:52:43;;;;;;;5.25;3.60;;;;;;;21.95;39.19;101509.66;4990253;28;20105;-64
2021/03/18 07:55:16;;;;;;;3.45;3.25;;;;;;;22.14;39.58;101509.72;4994574;28;20050;-66
2021/03/18 07:57:49;;;;;;;3.33;3.13;;;;;;;22.29;41.66;101508.16;5002330;28;20025;-65
2021/03/18 08:00:17;;;;;;;6.05;2.83;;;;;;;22.38;39.04;101512.22;4988186;28;20030;-66
2021/03/18 08:02:42;;;;;;;3.33;3.13;;;;;;;22.48;39.61;101509.13;4986347;28;20025;-68
2021/03/18 08:05:08;;;;;;;3.67;3.33;;;;;;;22.53;39.41;101504.41;4996212;28;20022;-65
2021/03/18 08:07:46;;;;;;;3.40;3.10;;;;;;;22.60;39.43;101505.03;4992054;28;20033;-68
2021/03/18 08:10:21;;;;;;;3.70;3.40;;;;;;;22.64;39.31;101503.94;4986769;28;20022;-64
2021/03/18 08:12:54;;;;;;;3.35;3.13;;;;;;;22.59;39.24;101498.78;4985658;28;20026;-65
2021/03/18 08:15:30;;;;;;;6.88;3.35;;;;;;;22.56;39.22;101501.59;4990301;28;20469;-73
2021/03/18 08:17:57;;;;;;;4.88;3.55;;;;;;;22.50;39.44;101493.78;4986813;28;20023;-69
2021/03/18 08:20:38;;;;;;;3.22;3.00;;;;;;;22.49;39.35;101495.63;4986966;28;20026;-68
2021/03/18 08:23:22;;;;;;;3.20;3.00;;;;;;;22.47;39.57;101488.56;4986783;28;20026;-67
2021/03/18 08:25:47;;;;;;;3.35;3.10;;;;;;;22.46;39.57;101484.13;4990934;28;20045;-67
2021/03/18 08:28:51;;;;;;;3.55;3.28;;;;;;;22.46;39.43;101487.69;4994129;28;20060;-66
2021/03/18 08:31:44;;;;;;;3.22;3.03;;;;;;;22.43;39.47;101477.97;5008265;28;20034;-66
2021/03/18 08:34:10;;;;;;;3.75;3.45;;;;;;;22.42;39.49;101480.72;4984945;28;20611;-66
2021/03/18 08:36:40;;;;;;;3.08;2.88;;;;;;;22.43;39.61;101482.44;4988271;28;20114;-66
2021/03/18 08:39:10;;;;;;;3.58;3.28;;;;;;;22.40;39.65;101478.09;4985338;28;20036;-66
2021/03/18 08:41:40;;;;;;;3.05;2.85;;;;;;;22.41;39.72;101479.84;4988328;28;20106;-66
2021/03/18 08:44:25;;;;;;;3.10;2.90;;;;;;;22.42;39.80;101480.72;4986923;28;20114;-66
2021/03/18 08:47:03;;;;;;;3.15;2.95;;;;;;;22.45;39.79;101482.38;4991706;28;20545;-66
2021/03/18 08:49:44;;;;;;;3.67;3.35;;;;;;;22.42;39.73;101470.84;4988622;28;20074;-66
2021/03/18 08:52:18;;;;;;;3.65;3.35;;;;;;;22.45;39.75;101471.63;4986232;28;20046;-66
2021/03/18 08:54:49;;;;;;;3.13;2.92;;;;;;;22.45;39.90;101474.31;5003170;28;20476;-66
2021/03/18 08:57:26;;;;;;;4.00;3.60;;;;;;;22.46;39.85;101470.69;4990096;28;20431;-66
2021/03/18 08:59:54;;;;;;;3.42;3.13;;;;;;;22.47;39.85;101473.28;4984482;28;20113;-66
2021/03/18 09:02:24;;;;;;;3.67;3.10;;;;;;;22.47;39.77;101477.81;4987376;28;20033;-66
2021/03/18 09:04:50;;;;;;;4.43;3.03;;;;;;;22.46;39.96;101471.56;4987669;28;20029;-66
2021/03/18 09:07:26;;;;;;;2.85;2.65;;;;;;;22.46;40.01;101468.00;4987122;28;20133;-66
2021/03/18 09:10:17;;;;;;;4.28;3.00;;;;;;;22.47;39.92;101472.44;4990024;28;21228;-66
2021/03/18 09:12:45;;;;;;;3.08;2.88;;;;;;;22.47;40.10;101467.06;4989753;28;20019;-66
2021/03/18 09:15:24;;;;;;;2.95;2.65;;;;;;;22.48;40.04;101461.63;4990926;28;20075;-66
2021/03/18 09:17:52;;;;;;;3.40;3.10;;;;;;;22.48;40.01;101466.13;4990931;28;20508;-66
2021/03/18 09:20:23;;;;;;;3.40;2.95;;;;;;;22.49;40.00;101460.69;5002084;28;20029;-66
2021/03/18 09:22:48;;;;;;;3.33;3.10;;;;;;;22.48;40.09;101458.06;4991139;28;20122;-66
2021/03/18 09:25:14;;;;;;;2.67;2.47;;;;;;;22.49;40.30;101457.09;4989282;28;20025;-66
2021/03/18 09:27:43;;;;;;;3.55;3.25;;;;;;;22.49;40.13;101454.41;4991608;28;20026;-66
2021/03/18 09:30:21;;;;;;;3.85;3.47;;;;;;;22.51;40.06;101452.53;4988195;28;20109;-66
2021/03/18 09:32:48;;;;;;;3.35;3.05;;;;;;;22.49;40.23;101449.94;4986035;28;20033;-66
2021/03/18 09:35:14;;;;;;;3.28;3.00;;;;;;;22.49;40.16;101446.34;4993681;28;20033;-66
2021/03/18 09:37:40;;;;;;;2.95;2.75;;;;;;;22.43;40.27;101451.09;4988584;28;20034;-66
2021/03/18 09:40:09;;;;;;;3.08;2.88;;;;;;;22.41;40.33;101452.97;4986601;28;20022;-66
2021/03/18 09:42:35;;;;;;;3.05;2.60;;;;;;;22.39;40.47;101445.91;4990198;28;20019;-66
2021/03/18 09:45:00;;;;;;;2.63;2.42;;;;;;;22.34;40.51;101446.13;4987458;28;20507;-66
2021/03/18 09:47:25;;;;;;;3.25;2.90;;;;;;;22.33;40.55;101446.19;5000840;28;20080;-67
2021/03/18 09:49:52;;;;;;;3.40;2.60;;;;;;;22.46;40.34;101439.31;4992893;28;20022;-66
2021/03/18 09:52:22;;;;;;;2.75;2.55;;;;;;;22.62;39.91;101449.38;4989423;28;20026;-66
2021/03/18 09:54:48;;;;;;;3.17;2.90;;;;;;;22.43;40.63;101443.03;4992239;28;20491;-66
2021/03/18 09:57:14;;;;;;;3.60;3.05;;;;;;;22.37;40.42;101440.63;4991733;28;20438;-66
2021/03/18 09:59:39;;;;;;;2.75;2.55;;;;;;;22.31;40.65;101440.91;4994792;28;20033;-66
2021/03/18 10:02:06;;;;;;;2.70;2.50;;;;;;;22.29;40.61;101442.78;4995889;28;20105;-66
2021/03/18 10:04:41;;;;;;;3.13;2.70;;;;;;;22.23;40.75;101425.16;4993765;28;20018;-66
2021/03/18 10:07:07;;;;;;;2.63;2.42;;;;;;;22.21;40.86;101418.09;4994993;28;20026;-66
2021/03/18 10:09:39;;;;;;;2.63;2.42;;;;;;;22.20;40.92;101417.22;4988063;28;20041;-66
2021/03/18 10:12:06;;;;;;;3.00;2.70;;;;;;;22.20;41.02;101411.00;4988392;28;20105;-66
2021/03/18 10:14:34;;;;;;;2.92;2.72;;;;;;;22.17;40.94;101412.00;4990446;28;20064;-66
2021/03/18 10:17:01;;;;;;;3.40;3.10;;;;;;;22.16;41.10;101418.31;4988584;28;20432;-66
2021/03/18 10:19:29;;;;;;;5.38;2.97;;;;;;;22.14;40.98;101410.31;4984841;28;20026;-66
2021/03/18 10:21:56;;;;;;;2.58;2.38;;;;;;;22.14;41.16;101407.63;4986318;28;20022;-66
2021/03/18 10:24:21;;;;;;;2.70;2.50;;;;;;;22.12;41.11;101406.84;4987355;28;20101;-66
2021/03/18 10:26:48;;;;;;;3.20;2.90;;;;;;;;;;4988333;28;20181;-66
2021/03/18 10:29:13;;;;;;;3.40;3.13;;;;;;;22.11;41.04;101401.56;4989622;28;20022;-66
2021/03/18 10:31:40;;;;;;;2.95;2.75;;;;;;;22.10;41.18;101405.16;4990570;28;20030;-66
2021/03/18 10:34:05;;;;;;;2.80;2.60;;;;;;;22.09;41.26;101400.72;4984701;28;20023;-66
2021/03/18 10:36:39;;;;;;;2.90;2.70;;;;;;;22.09;41.19;101403.41;4989509;28;20030;-66
2021/03/18 10:39:07;;;;;;;2.95;2.70;;;;;;;22.05;41.25;101400.88;4987989;28;20019;-66
2021/03/18 10:41:33;;;;;;;2.90;2.70;;;;;;;22.04;41.33;101391.06;4990366;28;20034;-66
2021/03/18 10:43:59;;;;;;;2.72;2.53;;;;;;;22.05;41.12;101397.34;4989255;28;20547;-66
2021/03/18 10:46:30;;;;;;;3.00;2.80;;;;;;;22.04;41.43;101384.84;4992308;28;20045;-66
2021/03/18 10:48:55;;;;;;;;;;;;;;;22.02;41.35;101387.59;4988350;28;20034;-66
2021/03/18 10:51:21;;;;;;;2.95;2.75;;;;;;;22.01;41.45;101385.84;4986351;28;19929;-66
2021/03/18 10:53:47;;;;;;;3.55;2.95;;;;;;;22.02;41.41;101386.72;4986457;28;20042;-66
2021/03/18 10:56:17;;;;;;;3.00;2.50;;;;;;;21.99;41.46;101376.13;4992129;28;20025;-66
2021/03/18 10:58:43;;;;;;;3.58;3.28;;;;;;;21.98;41.50;101374.38;4986202;28;20396;-66
2021/03/18 11:01:11;;;;;;;2.67;2.47;;;;;;;21.97;41.58;101372.66;4984764;28;20027;-66
2021/03/18 11:03:41;;;;;;;3.05;2.83;;;;;;;21.96;41.60;101368.19;4993960;28;20376;-66
2021/03/18 11:06:20;;;;;;;2.60;2.40;;;;;;;21.95;41.54;101366.47;4988440;28;20117;-66
2021/03/18 11:08:54;;;;;;;2.83;2.63;;;;;;;21.95;41.55;101361.09;4992351;28;20535;-65
2021/03/18 11:11:21;;;;;;;2.67;2.50;;;;;;;21.95;41.66;101361.09;4984856;28;20034;-65
2021/03/18 11:13:47;;;;;;;3.03;2.83;;;;;;;21.95;41.74;101348.56;4990982;28;20064;-66
2021/03/18 11:16:20;;;;;;;2.90;2.70;;;;;;;21.96;41.63;101352.09;4986866;28;20017;-66
2021/03/18 11:18:46;;;;;;;3.20;2.88;;;;;;;21.94;41.58;101351.31;4984874;28;20642;-66
2021/03/18 11:21:29;;;;;;;3.00;2.80;;;;;;;21.92;41.58;101341.50;4991909;28;20113;-66
2021/03/18 11:24:07;;;;;;;2.80;2.60;;;;;;;21.94;41.58;101341.41;4991429;28;20033;-66
2021/03/18 11:26:33;;;;;;;2.78;2.58;;;;;;;21.94;41.70;101343.25;4991898;28;20034;-66
2021/03/18 11:29:19;;;;;;;3.13;2.83;;;;;;;21.92;41.73;101354.06;4990718;28;20435;-66
2021/03/18 11:31:47;;;;;;;2.60;2.40;;;;;;;21.91;41.69;101346.94;4992066;28;20038;-67
2021/03/18 11:34:16;;;;;;;3.03;2.83;;;;;;;21.89;41.82;101351.50;4992879;28;20057;-66
2021/03/18 11:36:44;;;;;;;2.55;2.35;;;;;;;21.88;41.65;101347.94;4987519;28;20073;-67